sensor_id;sensor_type;location;lat;lon;timestamp;P1;durP1;ratioP1;P2;durP2;ratioP2
9424;SDS011;17139;52.140;11.636;2023-06-22T00:01:19;6.95;;;6.50;;
9424;SDS011;17139;52.140;11.636;2023-06-22T00:03:47;7.10;;;6.65;;
9424;SDS011;17139;52.140;11.636;2023-06-22T00:06:14;6.63;;;6.32;;
9424;SDS011;17139;52.140;11.636;2023-06-22T00:08:41;8.45;;;7.90;;
9424;SDS011;17139;52.140;11.636;2023-06-22T00:11:10;7.10;;;6.70;;
9424;SDS011;17139;52.140;11.636;2023-06-22T00:13:37;7.95;;;7.45;;
9424;SDS011;17139;52.140;11.636;2023-06-22T00:16:04;8.25;;;7.75;;
9424;SDS011;17139;52.140;11.636;2023-06-22T00:18:31;7.63;;;7.13;;
9424;SDS011;17139;52.140;11.636;2023-06-22T00:20:58;7.68;;;7.25;;
9424;SDS011;17139;52.140;11.636;2023-06-22T00:23:25;8.18;;;7.50;;
9424;SDS011;17139;52.140;11.636;2023-06-22T00:25:52;7.75;;;7.25;;
9424;SDS011;17139;52.140;11.636;2023-06-22T00:28:21;7.70;;;7.30;;
9424;SDS011;17139;52.140;11.636;2023-06-22T00:30:48;8.80;;;7.65;;
9424;SDS011;17139;52.140;11.636;2023-06-22T00:33:15;8.35;;;7.70;;
9424;SDS011;17139;52.140;11.636;2023-06-22T00:35:42;8.88;;;7.85;;
9424;SDS011;17139;52.140;11.636;2023-06-22T00:38:09;9.37;;;8.77;;
9424;SDS011;17139;52.140;11.636;2023-06-22T00:40:37;8.55;;;7.82;;
9424;SDS011;17139;52.140;11.636;2023-06-22T00:43:04;8.80;;;8.25;;
9424;SDS011;17139;52.140;11.636;2023-06-22T00:45:33;10.03;;;9.37;;
9424;SDS011;17139;52.140;11.636;2023-06-22T00:48:00;8.68;;;8.23;;
9424;SDS011;17139;52.140;11.636;2023-06-22T00:50:29;8.55;;;8.05;;
9424;SDS011;17139;52.140;11.636;2023-06-22T00:52:59;8.13;;;7.72;;
9424;SDS011;17139;52.140;11.636;2023-06-22T00:55:30;8.95;;;8.23;;
9424;SDS011;17139;52.140;11.636;2023-06-22T00:57:57;8.55;;;8.05;;
9424;SDS011;17139;52.140;11.636;2023-06-22T01:00:24;8.10;;;7.63;;
9424;SDS011;17139;52.140;11.636;2023-06-22T01:02:53;8.25;;;7.75;;
9424;SDS011;17139;52.140;11.636;2023-06-22T01:05:21;8.45;;;7.85;;
9424;SDS011;17139;52.140;11.636;2023-06-22T01:07:56;8.55;;;8.15;;
9424;SDS011;17139;52.140;11.636;2023-06-22T01:10:34;9.55;;;9.05;;
9424;SDS011;17139;52.140;11.636;2023-06-22T01:13:07;8.05;;;7.55;;
9424;SDS011;17139;52.140;11.636;2023-06-22T01:15:39;8.10;;;7.53;;
9424;SDS011;17139;52.140;11.636;2023-06-22T01:18:15;7.88;;;7.47;;
9424;SDS011;17139;52.140;11.636;2023-06-22T01:20:45;8.57;;;8.07;;
9424;SDS011;17139;52.140;11.636;2023-06-22T01:23:17;8.40;;;7.80;;
9424;SDS011;17139;52.140;11.636;2023-06-22T01:25:56;9.30;;;8.60;;
9424;SDS011;17139;52.140;11.636;2023-06-22T01:28:37;9.32;;;8.52;;
9424;SDS011;17139;52.140;11.636;2023-06-22T01:31:12;8.75;;;7.95;;
9424;SDS011;17139;52.140;11.636;2023-06-22T01:33:43;9.03;;;8.43;;
9424;SDS011;17139;52.140;11.636;2023-06-22T01:36:13;8.52;;;7.88;;
9424;SDS011;17139;52.140;11.636;2023-06-22T01:38:42;8.43;;;7.82;;
9424;SDS011;17139;52.140;11.636;2023-06-22T01:41:11;8.15;;;7.75;;
9424;SDS011;17139;52.140;11.636;2023-06-22T01:43:39;8.45;;;8.00;;
9424;SDS011;17139;52.140;11.636;2023-06-22T01:46:07;8.45;;;7.85;;
9424;SDS011;17139;52.140;11.636;2023-06-22T01:48:35;8.20;;;7.70;;
9424;SDS011;17139;52.140;11.636;2023-06-22T01:51:02;8.65;;;8.15;;
9424;SDS011;17139;52.140;11.636;2023-06-22T01:53:29;8.75;;;8.32;;
9424;SDS011;17139;52.140;11.636;2023-06-22T01:55:56;8.85;;;8.30;;
9424;SDS011;17139;52.140;11.636;2023-06-22T01:58:25;8.10;;;7.45;;
9424;SDS011;17139;52.140;11.636;2023-06-22T02:00:56;8.60;;;8.20;;
9424;SDS011;17139;52.140;11.636;2023-06-22T02:03:30;8.30;;;7.80;;
9424;SDS011;17139;52.140;11.636;2023-06-22T02:06:02;8.27;;;7.53;;
9424;SDS011;17139;52.140;11.636;2023-06-22T02:08:32;7.93;;;7.38;;
9424;SDS011;17139;52.140;11.636;2023-06-22T02:11:03;8.32;;;7.82;;
9424;SDS011;17139;52.140;11.636;2023-06-22T02:13:32;7.78;;;7.03;;
9424;SDS011;17139;52.140;11.636;2023-06-22T02:16:01;7.20;;;6.80;;
9424;SDS011;17139;52.140;11.636;2023-06-22T02:18:29;7.23;;;6.83;;
9424;SDS011;17139;52.140;11.636;2023-06-22T02:20:56;7.05;;;6.72;;
9424;SDS011;17139;52.140;11.636;2023-06-22T02:23:24;6.82;;;6.53;;
9424;SDS011;17139;52.140;11.636;2023-06-22T02:25:52;8.23;;;7.75;;
9424;SDS011;17139;52.140;11.636;2023-06-22T02:28:19;7.25;;;6.95;;
9424;SDS011;17139;52.140;11.636;2023-06-22T02:30:46;8.38;;;7.57;;
9424;SDS011;17139;52.140;11.636;2023-06-22T02:33:14;6.72;;;6.43;;
9424;SDS011;17139;52.140;11.636;2023-06-22T02:35:41;7.40;;;7.00;;
9424;SDS011;17139;52.140;11.636;2023-06-22T02:38:10;7.40;;;7.00;;
9424;SDS011;17139;52.140;11.636;2023-06-22T02:40:37;7.65;;;7.25;;
9424;SDS011;17139;52.140;11.636;2023-06-22T02:43:04;7.50;;;7.20;;
9424;SDS011;17139;52.140;11.636;2023-06-22T02:45:31;8.50;;;7.90;;
9424;SDS011;17139;52.140;11.636;2023-06-22T02:47:58;7.93;;;7.43;;
9424;SDS011;17139;52.140;11.636;2023-06-22T02:50:27;7.05;;;6.75;;
9424;SDS011;17139;52.140;11.636;2023-06-22T02:52:54;7.47;;;6.95;;
9424;SDS011;17139;52.140;11.636;2023-06-22T02:55:21;6.82;;;6.43;;
9424;SDS011;17139;52.140;11.636;2023-06-22T02:57:48;6.97;;;6.50;;
9424;SDS011;17139;52.140;11.636;2023-06-22T03:00:18;6.22;;;5.93;;
9424;SDS011;17139;52.140;11.636;2023-06-22T03:02:47;6.80;;;6.50;;
9424;SDS011;17139;52.140;11.636;2023-06-22T03:05:15;6.15;;;5.85;;
9424;SDS011;17139;52.140;11.636;2023-06-22T03:07:44;7.20;;;6.50;;
9424;SDS011;17139;52.140;11.636;2023-06-22T03:10:12;6.70;;;6.40;;
9424;SDS011;17139;52.140;11.636;2023-06-22T03:12:40;6.22;;;5.93;;
9424;SDS011;17139;52.140;11.636;2023-06-22T03:15:09;6.78;;;6.32;;
9424;SDS011;17139;52.140;11.636;2023-06-22T03:17:37;7.10;;;6.75;;
9424;SDS011;17139;52.140;11.636;2023-06-22T03:20:05;6.03;;;5.82;;
9424;SDS011;17139;52.140;11.636;2023-06-22T03:22:35;6.95;;;6.60;;
9424;SDS011;17139;52.140;11.636;2023-06-22T03:25:04;6.15;;;5.82;;
9424;SDS011;17139;52.140;11.636;2023-06-22T03:27:35;7.68;;;6.95;;
9424;SDS011;17139;52.140;11.636;2023-06-22T03:30:03;7.38;;;6.93;;
9424;SDS011;17139;52.140;11.636;2023-06-22T03:32:30;6.45;;;6.15;;
9424;SDS011;17139;52.140;11.636;2023-06-22T03:34:57;6.82;;;6.43;;
9424;SDS011;17139;52.140;11.636;2023-06-22T03:37:25;7.03;;;6.60;;
9424;SDS011;17139;52.140;11.636;2023-06-22T03:39:52;7.28;;;6.88;;
9424;SDS011;17139;52.140;11.636;2023-06-22T03:42:20;7.20;;;6.90;;
9424;SDS011;17139;52.140;11.636;2023-06-22T03:44:47;6.68;;;6.28;;
9424;SDS011;17139;52.140;11.636;2023-06-22T03:47:14;6.18;;;5.88;;
9424;SDS011;17139;52.140;11.636;2023-06-22T03:49:41;5.70;;;5.40;;
9424;SDS011;17139;52.140;11.636;2023-06-22T03:52:08;6.47;;;5.97;;
9424;SDS011;17139;52.140;11.636;2023-06-22T03:54:36;6.53;;;6.20;;
9424;SDS011;17139;52.140;11.636;2023-06-22T03:57:03;6.65;;;6.15;;
9424;SDS011;17139;52.140;11.636;2023-06-22T03:59:32;6.70;;;6.40;;
9424;SDS011;17139;52.140;11.636;2023-06-22T04:01:59;7.93;;;7.32;;
9424;SDS011;17139;52.140;11.636;2023-06-22T04:04:26;6.32;;;6.03;;
9424;SDS011;17139;52.140;11.636;2023-06-22T04:06:53;6.38;;;5.97;;
9424;SDS011;17139;52.140;11.636;2023-06-22T04:09:20;7.50;;;7.00;;
9424;SDS011;17139;52.140;11.636;2023-06-22T04:11:47;6.60;;;6.20;;
9424;SDS011;17139;52.140;11.636;2023-06-22T04:14:14;7.07;;;6.68;;
9424;SDS011;17139;52.140;11.636;2023-06-22T04:16:43;6.97;;;6.53;;
9424;SDS011;17139;52.140;11.636;2023-06-22T04:19:10;6.88;;;6.32;;
9424;SDS011;17139;52.140;11.636;2023-06-22T04:21:41;5.85;;;5.47;;
9424;SDS011;17139;52.140;11.636;2023-06-22T04:24:08;6.85;;;6.28;;
9424;SDS011;17139;52.140;11.636;2023-06-22T04:26:35;7.13;;;6.63;;
9424;SDS011;17139;52.140;11.636;2023-06-22T04:29:03;6.75;;;6.35;;
9424;SDS011;17139;52.140;11.636;2023-06-22T04:31:31;6.38;;;6.03;;
9424;SDS011;17139;52.140;11.636;2023-06-22T04:34:03;8.10;;;7.30;;
9424;SDS011;17139;52.140;11.636;2023-06-22T04:36:33;7.53;;;6.97;;
9424;SDS011;17139;52.140;11.636;2023-06-22T04:39:03;7.10;;;6.70;;
9424;SDS011;17139;52.140;11.636;2023-06-22T04:41:31;6.80;;;6.30;;
9424;SDS011;17139;52.140;11.636;2023-06-22T04:44:06;7.55;;;6.65;;
9424;SDS011;17139;52.140;11.636;2023-06-22T04:46:34;6.65;;;6.25;;
9424;SDS011;17139;52.140;11.636;2023-06-22T04:49:05;6.75;;;6.35;;
9424;SDS011;17139;52.140;11.636;2023-06-22T04:51:34;6.85;;;6.35;;
9424;SDS011;17139;52.140;11.636;2023-06-22T04:54:05;7.70;;;7.07;;
9424;SDS011;17139;52.140;11.636;2023-06-22T04:56:32;7.07;;;6.47;;
9424;SDS011;17139;52.140;11.636;2023-06-22T04:59:00;7.70;;;7.20;;
9424;SDS011;17139;52.140;11.636;2023-06-22T05:01:28;6.88;;;6.47;;
9424;SDS011;17139;52.140;11.636;2023-06-22T05:03:59;6.78;;;6.45;;
9424;SDS011;17139;52.140;11.636;2023-06-22T05:06:29;6.47;;;6.07;;
9424;SDS011;17139;52.140;11.636;2023-06-22T05:08:56;7.38;;;6.50;;
9424;SDS011;17139;52.140;11.636;2023-06-22T05:11:24;7.25;;;6.57;;
9424;SDS011;17139;52.140;11.636;2023-06-22T05:13:51;6.70;;;6.30;;
9424;SDS011;17139;52.140;11.636;2023-06-22T05:16:18;7.70;;;7.30;;
9424;SDS011;17139;52.140;11.636;2023-06-22T05:18:49;7.53;;;7.05;;
9424;SDS011;17139;52.140;11.636;2023-06-22T05:21:17;7.88;;;7.38;;
9424;SDS011;17139;52.140;11.636;2023-06-22T05:23:46;8.20;;;7.60;;
9424;SDS011;17139;52.140;11.636;2023-06-22T05:26:13;7.93;;;7.43;;
9424;SDS011;17139;52.140;11.636;2023-06-22T05:28:40;7.80;;;6.95;;
9424;SDS011;17139;52.140;11.636;2023-06-22T05:31:07;7.80;;;7.13;;
9424;SDS011;17139;52.140;11.636;2023-06-22T05:33:34;7.55;;;7.05;;
9424;SDS011;17139;52.140;11.636;2023-06-22T05:36:01;7.80;;;7.30;;
9424;SDS011;17139;52.140;11.636;2023-06-22T05:38:28;7.47;;;7.00;;
9424;SDS011;17139;52.140;11.636;2023-06-22T05:40:56;7.22;;;6.82;;
9424;SDS011;17139;52.140;11.636;2023-06-22T05:43:23;12.93;;;9.32;;
9424;SDS011;17139;52.140;11.636;2023-06-22T05:45:50;9.90;;;7.22;;
9424;SDS011;17139;52.140;11.636;2023-06-22T05:48:17;8.25;;;7.75;;
9424;SDS011;17139;52.140;11.636;2023-06-22T05:50:44;7.25;;;6.93;;
9424;SDS011;17139;52.140;11.636;2023-06-22T05:53:11;7.60;;;6.88;;
9424;SDS011;17139;52.140;11.636;2023-06-22T05:55:38;7.95;;;7.40;;
9424;SDS011;17139;52.140;11.636;2023-06-22T05:58:07;8.07;;;7.50;;
9424;SDS011;17139;52.140;11.636;2023-06-22T06:00:34;8.25;;;7.40;;
9424;SDS011;17139;52.140;11.636;2023-06-22T06:03:01;7.97;;;7.50;;
9424;SDS011;17139;52.140;11.636;2023-06-22T06:05:29;8.40;;;7.80;;
9424;SDS011;17139;52.140;11.636;2023-06-22T06:07:56;8.57;;;8.07;;
9424;SDS011;17139;52.140;11.636;2023-06-22T06:10:24;7.32;;;6.80;;
9424;SDS011;17139;52.140;11.636;2023-06-22T06:12:51;7.63;;;6.97;;
9424;SDS011;17139;52.140;11.636;2023-06-22T06:15:19;8.85;;;8.25;;
9424;SDS011;17139;52.140;11.636;2023-06-22T06:17:46;7.57;;;7.18;;
9424;SDS011;17139;52.140;11.636;2023-06-22T06:20:14;8.95;;;8.18;;
9424;SDS011;17139;52.140;11.636;2023-06-22T06:22:41;7.65;;;7.25;;
9424;SDS011;17139;52.140;11.636;2023-06-22T06:25:09;8.95;;;8.52;;
9424;SDS011;17139;52.140;11.636;2023-06-22T06:27:41;8.15;;;7.65;;
9424;SDS011;17139;52.140;11.636;2023-06-22T06:30:09;8.10;;;7.72;;
9424;SDS011;17139;52.140;11.636;2023-06-22T06:32:38;9.90;;;8.18;;
9424;SDS011;17139;52.140;11.636;2023-06-22T06:35:06;7.90;;;7.40;;
9424;SDS011;17139;52.140;11.636;2023-06-22T06:37:35;7.85;;;7.45;;
9424;SDS011;17139;52.140;11.636;2023-06-22T06:40:03;7.13;;;6.72;;
9424;SDS011;17139;52.140;11.636;2023-06-22T06:42:33;7.90;;;7.30;;
9424;SDS011;17139;52.140;11.636;2023-06-22T06:45:00;8.43;;;7.10;;
9424;SDS011;17139;52.140;11.636;2023-06-22T06:47:27;7.88;;;6.90;;
9424;SDS011;17139;52.140;11.636;2023-06-22T06:49:55;7.10;;;6.65;;
9424;SDS011;17139;52.140;11.636;2023-06-22T06:52:22;7.68;;;7.10;;
9424;SDS011;17139;52.140;11.636;2023-06-22T06:54:49;7.50;;;6.80;;
9424;SDS011;17139;52.140;11.636;2023-06-22T06:57:17;7.47;;;6.97;;
9424;SDS011;17139;52.140;11.636;2023-06-22T06:59:45;7.53;;;7.15;;
9424;SDS011;17139;52.140;11.636;2023-06-22T07:02:12;7.60;;;7.18;;
9424;SDS011;17139;52.140;11.636;2023-06-22T07:04:39;7.95;;;7.55;;
9424;SDS011;17139;52.140;11.636;2023-06-22T07:07:08;7.07;;;6.63;;
9424;SDS011;17139;52.140;11.636;2023-06-22T07:09:35;7.47;;;7.07;;
9424;SDS011;17139;52.140;11.636;2023-06-22T07:12:02;7.35;;;6.88;;
9424;SDS011;17139;52.140;11.636;2023-06-22T07:14:29;7.53;;;7.15;;
9424;SDS011;17139;52.140;11.636;2023-06-22T07:16:57;7.70;;;7.03;;
9424;SDS011;17139;52.140;11.636;2023-06-22T07:19:24;7.82;;;7.43;;
9424;SDS011;17139;52.140;11.636;2023-06-22T07:21:52;7.72;;;7.13;;
9424;SDS011;17139;52.140;11.636;2023-06-22T07:24:20;9.15;;;8.48;;
9424;SDS011;17139;52.140;11.636;2023-06-22T07:26:48;8.15;;;7.45;;
9424;SDS011;17139;52.140;11.636;2023-06-22T07:29:16;9.63;;;8.88;;
9424;SDS011;17139;52.140;11.636;2023-06-22T07:31:44;7.95;;;7.60;;
9424;SDS011;17139;52.140;11.636;2023-06-22T07:34:12;7.80;;;7.50;;
9424;SDS011;17139;52.140;11.636;2023-06-22T07:36:39;7.97;;;7.57;;
9424;SDS011;17139;52.140;11.636;2023-06-22T07:39:06;8.10;;;7.57;;
9424;SDS011;17139;52.140;11.636;2023-06-22T07:41:34;8.63;;;8.13;;
9424;SDS011;17139;52.140;11.636;2023-06-22T07:44:01;7.20;;;6.88;;
9424;SDS011;17139;52.140;11.636;2023-06-22T07:46:29;6.93;;;6.63;;
9424;SDS011;17139;52.140;11.636;2023-06-22T07:48:56;7.72;;;7.38;;
9424;SDS011;17139;52.140;11.636;2023-06-22T07:51:24;7.57;;;6.95;;
9424;SDS011;17139;52.140;11.636;2023-06-22T07:53:51;8.20;;;7.80;;
9424;SDS011;17139;52.140;11.636;2023-06-22T07:56:18;7.40;;;7.10;;
9424;SDS011;17139;52.140;11.636;2023-06-22T07:58:48;7.93;;;7.40;;
9424;SDS011;17139;52.140;11.636;2023-06-22T08:01:15;8.30;;;7.60;;
9424;SDS011;17139;52.140;11.636;2023-06-22T08:03:44;8.35;;;7.75;;
9424;SDS011;17139;52.140;11.636;2023-06-22T08:06:11;7.88;;;7.45;;
9424;SDS011;17139;52.140;11.636;2023-06-22T08:08:38;7.70;;;7.28;;
9424;SDS011;17139;52.140;11.636;2023-06-22T08:11:05;8.52;;;7.75;;
9424;SDS011;17139;52.140;11.636;2023-06-22T08:13:32;8.98;;;8.48;;
9424;SDS011;17139;52.140;11.636;2023-06-22T08:16:01;7.97;;;7.47;;
9424;SDS011;17139;52.140;11.636;2023-06-22T08:18:28;8.40;;;7.95;;
9424;SDS011;17139;52.140;11.636;2023-06-22T08:20:55;8.45;;;7.88;;
9424;SDS011;17139;52.140;11.636;2023-06-22T08:23:22;7.97;;;7.30;;
9424;SDS011;17139;52.140;11.636;2023-06-22T08:25:49;8.65;;;8.25;;
9424;SDS011;17139;52.140;11.636;2023-06-22T08:28:16;7.60;;;7.30;;
9424;SDS011;17139;52.140;11.636;2023-06-22T08:30:43;9.60;;;7.70;;
9424;SDS011;17139;52.140;11.636;2023-06-22T08:33:11;8.15;;;7.20;;
9424;SDS011;17139;52.140;11.636;2023-06-22T08:35:39;7.68;;;7.28;;
9424;SDS011;17139;52.140;11.636;2023-06-22T08:38:06;9.00;;;8.47;;
9424;SDS011;17139;52.140;11.636;2023-06-22T08:40:34;8.90;;;8.20;;
9424;SDS011;17139;52.140;11.636;2023-06-22T08:43:01;9.02;;;8.30;;
9424;SDS011;17139;52.140;11.636;2023-06-22T08:45:28;8.85;;;8.35;;
9424;SDS011;17139;52.140;11.636;2023-06-22T08:47:55;8.05;;;7.60;;
9424;SDS011;17139;52.140;11.636;2023-06-22T08:50:23;8.77;;;8.20;;
9424;SDS011;17139;52.140;11.636;2023-06-22T08:52:50;8.48;;;8.07;;
9424;SDS011;17139;52.140;11.636;2023-06-22T08:55:17;8.10;;;7.68;;
9424;SDS011;17139;52.140;11.636;2023-06-22T08:57:44;8.10;;;7.57;;
9424;SDS011;17139;52.140;11.636;2023-06-22T09:00:12;7.70;;;7.30;;
9424;SDS011;17139;52.140;11.636;2023-06-22T09:02:43;9.47;;;8.87;;
9424;SDS011;17139;52.140;11.636;2023-06-22T09:05:10;8.15;;;7.75;;
9424;SDS011;17139;52.140;11.636;2023-06-22T09:07:41;8.48;;;7.97;;
9424;SDS011;17139;52.140;11.636;2023-06-22T09:10:08;8.13;;;7.60;;
9424;SDS011;17139;52.140;11.636;2023-06-22T09:12:35;8.55;;;8.05;;
9424;SDS011;17139;52.140;11.636;2023-06-22T09:15:03;8.27;;;7.78;;
9424;SDS011;17139;52.140;11.636;2023-06-22T09:17:32;8.55;;;8.15;;
9424;SDS011;17139;52.140;11.636;2023-06-22T09:20:00;8.60;;;8.20;;
9424;SDS011;17139;52.140;11.636;2023-06-22T09:22:30;9.10;;;8.50;;
9424;SDS011;17139;52.140;11.636;2023-06-22T09:24:59;8.35;;;8.00;;
9424;SDS011;17139;52.140;11.636;2023-06-22T09:27:26;8.93;;;8.43;;
9424;SDS011;17139;52.140;11.636;2023-06-22T09:29:53;8.80;;;8.30;;
9424;SDS011;17139;52.140;11.636;2023-06-22T09:32:20;7.78;;;7.43;;
9424;SDS011;17139;52.140;11.636;2023-06-22T09:34:47;8.52;;;8.02;;
9424;SDS011;17139;52.140;11.636;2023-06-22T09:37:14;8.20;;;7.75;;
9424;SDS011;17139;52.140;11.636;2023-06-22T09:39:41;8.95;;;8.25;;
9424;SDS011;17139;52.140;11.636;2023-06-22T09:42:09;8.63;;;8.13;;
9424;SDS011;17139;52.140;11.636;2023-06-22T09:44:38;8.13;;;7.40;;
9424;SDS011;17139;52.140;11.636;2023-06-22T09:47:05;8.38;;;7.75;;
9424;SDS011;17139;52.140;11.636;2023-06-22T09:49:33;8.50;;;8.07;;
9424;SDS011;17139;52.140;11.636;2023-06-22T09:52:00;8.55;;;7.72;;
9424;SDS011;17139;52.140;11.636;2023-06-22T09:54:27;9.48;;;8.98;;
9424;SDS011;17139;52.140;11.636;2023-06-22T09:56:54;9.90;;;9.18;;
9424;SDS011;17139;52.140;11.636;2023-06-22T09:59:22;10.52;;;9.68;;
9424;SDS011;17139;52.140;11.636;2023-06-22T10:01:49;8.98;;;8.27;;
9424;SDS011;17139;52.140;11.636;2023-06-22T10:04:16;8.27;;;7.88;;
9424;SDS011;17139;52.140;11.636;2023-06-22T10:06:43;8.45;;;8.05;;
9424;SDS011;17139;52.140;11.636;2023-06-22T10:09:10;9.13;;;8.63;;
9424;SDS011;17139;52.140;11.636;2023-06-22T10:11:37;9.55;;;9.07;;
9424;SDS011;17139;52.140;11.636;2023-06-22T10:14:04;10.02;;;9.18;;
9424;SDS011;17139;52.140;11.636;2023-06-22T10:16:33;9.30;;;8.65;;
9424;SDS011;17139;52.140;11.636;2023-06-22T10:19:02;9.75;;;9.15;;
9424;SDS011;17139;52.140;11.636;2023-06-22T10:21:29;9.18;;;8.63;;
9424;SDS011;17139;52.140;11.636;2023-06-22T10:23:56;8.68;;;8.27;;
9424;SDS011;17139;52.140;11.636;2023-06-22T10:26:24;10.05;;;9.45;;
9424;SDS011;17139;52.140;11.636;2023-06-22T10:28:53;9.20;;;8.50;;
9424;SDS011;17139;52.140;11.636;2023-06-22T10:31:20;9.55;;;9.07;;
9424;SDS011;17139;52.140;11.636;2023-06-22T10:33:49;9.90;;;9.30;;
9424;SDS011;17139;52.140;11.636;2023-06-22T10:36:16;10.00;;;9.43;;
9424;SDS011;17139;52.140;11.636;2023-06-22T10:38:43;9.07;;;8.63;;
9424;SDS011;17139;52.140;11.636;2023-06-22T10:41:10;11.38;;;10.35;;
9424;SDS011;17139;52.140;11.636;2023-06-22T10:43:37;12.40;;;11.50;;
9424;SDS011;17139;52.140;11.636;2023-06-22T10:46:04;12.30;;;11.00;;
9424;SDS011;17139;52.140;11.636;2023-06-22T10:48:32;11.23;;;10.27;;
9424;SDS011;17139;52.140;11.636;2023-06-22T10:51:01;11.70;;;10.75;;
9424;SDS011;17139;52.140;11.636;2023-06-22T10:53:28;13.35;;;11.05;;
9424;SDS011;17139;52.140;11.636;2023-06-22T10:55:55;10.68;;;9.73;;
9424;SDS011;17139;52.140;11.636;2023-06-22T10:58:22;9.85;;;9.25;;
9424;SDS011;17139;52.140;11.636;2023-06-22T11:00:49;9.75;;;9.23;;
9424;SDS011;17139;52.140;11.636;2023-06-22T11:03:16;11.35;;;9.68;;
9424;SDS011;17139;52.140;11.636;2023-06-22T11:05:43;9.43;;;8.85;;
9424;SDS011;17139;52.140;11.636;2023-06-22T11:08:12;9.23;;;8.73;;
9424;SDS011;17139;52.140;11.636;2023-06-22T11:10:39;9.70;;;8.82;;
9424;SDS011;17139;52.140;11.636;2023-06-22T11:13:06;9.43;;;8.82;;
9424;SDS011;17139;52.140;11.636;2023-06-22T11:15:34;11.35;;;10.35;;
9424;SDS011;17139;52.140;11.636;2023-06-22T11:18:02;13.52;;;8.85;;
9424;SDS011;17139;52.140;11.636;2023-06-22T11:20:30;11.27;;;10.25;;
9424;SDS011;17139;52.140;11.636;2023-06-22T11:22:59;8.68;;;8.10;;
9424;SDS011;17139;52.140;11.636;2023-06-22T11:25:28;14.23;;;8.50;;
9424;SDS011;17139;52.140;11.636;2023-06-22T11:27:55;8.32;;;7.72;;
9424;SDS011;17139;52.140;11.636;2023-06-22T11:30:22;9.98;;;9.13;;
9424;SDS011;17139;52.140;11.636;2023-06-22T11:32:50;9.45;;;8.85;;
9424;SDS011;17139;52.140;11.636;2023-06-22T11:35:17;9.35;;;8.85;;
9424;SDS011;17139;52.140;11.636;2023-06-22T11:37:44;9.38;;;8.68;;
9424;SDS011;17139;52.140;11.636;2023-06-22T11:40:12;13.77;;;7.88;;
9424;SDS011;17139;52.140;11.636;2023-06-22T11:42:40;11.10;;;10.20;;
9424;SDS011;17139;52.140;11.636;2023-06-22T11:45:07;9.75;;;9.02;;
9424;SDS011;17139;52.140;11.636;2023-06-22T11:47:35;9.02;;;8.50;;
9424;SDS011;17139;52.140;11.636;2023-06-22T11:50:02;9.35;;;8.85;;
9424;SDS011;17139;52.140;11.636;2023-06-22T11:52:30;10.07;;;9.23;;
9424;SDS011;17139;52.140;11.636;2023-06-22T11:54:57;10.27;;;9.60;;
9424;SDS011;17139;52.140;11.636;2023-06-22T11:57:24;9.37;;;8.87;;
9424;SDS011;17139;52.140;11.636;2023-06-22T11:59:53;8.20;;;7.90;;
9424;SDS011;17139;52.140;11.636;2023-06-22T12:02:20;8.15;;;7.65;;
9424;SDS011;17139;52.140;11.636;2023-06-22T12:04:47;8.73;;;8.32;;
9424;SDS011;17139;52.140;11.636;2023-06-22T12:07:17;8.73;;;8.15;;
9424;SDS011;17139;52.140;11.636;2023-06-22T12:09:44;8.68;;;8.18;;
9424;SDS011;17139;52.140;11.636;2023-06-22T12:12:11;9.40;;;8.90;;
9424;SDS011;17139;52.140;11.636;2023-06-22T12:14:38;9.18;;;8.52;;
9424;SDS011;17139;52.140;11.636;2023-06-22T12:17:07;9.35;;;8.77;;
9424;SDS011;17139;52.140;11.636;2023-06-22T12:19:34;10.30;;;9.60;;
9424;SDS011;17139;52.140;11.636;2023-06-22T12:22:01;9.38;;;8.88;;
9424;SDS011;17139;52.140;11.636;2023-06-22T12:24:28;9.70;;;9.20;;
9424;SDS011;17139;52.140;11.636;2023-06-22T12:26:55;9.57;;;8.98;;
9424;SDS011;17139;52.140;11.636;2023-06-22T12:29:22;9.10;;;8.30;;
9424;SDS011;17139;52.140;11.636;2023-06-22T12:31:49;8.85;;;8.43;;
9424;SDS011;17139;52.140;11.636;2023-06-22T12:34:18;8.73;;;8.05;;
9424;SDS011;17139;52.140;11.636;2023-06-22T12:36:45;9.07;;;8.23;;
9424;SDS011;17139;52.140;11.636;2023-06-22T12:39:13;9.48;;;9.00;;
9424;SDS011;17139;52.140;11.636;2023-06-22T12:41:40;9.68;;;9.18;;
9424;SDS011;17139;52.140;11.636;2023-06-22T12:44:07;9.07;;;8.57;;
9424;SDS011;17139;52.140;11.636;2023-06-22T12:46:34;9.85;;;9.25;;
9424;SDS011;17139;52.140;11.636;2023-06-22T12:49:02;9.13;;;8.70;;
9424;SDS011;17139;52.140;11.636;2023-06-22T12:51:31;8.95;;;8.45;;
9424;SDS011;17139;52.140;11.636;2023-06-22T12:53:59;8.48;;;8.07;;
9424;SDS011;17139;52.140;11.636;2023-06-22T12:56:26;10.15;;;9.35;;
9424;SDS011;17139;52.140;11.636;2023-06-22T12:58:53;9.77;;;8.88;;
9424;SDS011;17139;52.140;11.636;2023-06-22T13:01:20;9.77;;;9.13;;
9424;SDS011;17139;52.140;11.636;2023-06-22T13:03:47;10.38;;;9.68;;
9424;SDS011;17139;52.140;11.636;2023-06-22T13:06:14;9.40;;;8.85;;
9424;SDS011;17139;52.140;11.636;2023-06-22T13:08:42;8.35;;;7.95;;
9424;SDS011;17139;52.140;11.636;2023-06-22T13:11:10;9.32;;;8.93;;
9424;SDS011;17139;52.140;11.636;2023-06-22T13:13:37;8.40;;;7.80;;
9424;SDS011;17139;52.140;11.636;2023-06-22T13:16:05;7.88;;;7.47;;
9424;SDS011;17139;52.140;11.636;2023-06-22T13:18:32;8.50;;;8.07;;
9424;SDS011;17139;52.140;11.636;2023-06-22T13:21:01;9.25;;;8.75;;
9424;SDS011;17139;52.140;11.636;2023-06-22T13:23:28;8.07;;;7.68;;
9424;SDS011;17139;52.140;11.636;2023-06-22T13:25:57;9.15;;;8.75;;
9424;SDS011;17139;52.140;11.636;2023-06-22T13:28:25;9.83;;;9.23;;
9424;SDS011;17139;52.140;11.636;2023-06-22T13:30:54;8.98;;;8.48;;
9424;SDS011;17139;52.140;11.636;2023-06-22T13:33:21;9.30;;;8.73;;
9424;SDS011;17139;52.140;11.636;2023-06-22T13:35:48;8.63;;;8.23;;
9424;SDS011;17139;52.140;11.636;2023-06-22T13:38:15;9.07;;;8.48;;
9424;SDS011;17139;52.140;11.636;2023-06-22T13:40:43;7.65;;;7.35;;
9424;SDS011;17139;52.140;11.636;2023-06-22T13:43:11;7.55;;;7.20;;
9424;SDS011;17139;52.140;11.636;2023-06-22T13:45:38;8.82;;;8.43;;
9424;SDS011;17139;52.140;11.636;2023-06-22T13:48:05;8.85;;;8.35;;
9424;SDS011;17139;52.140;11.636;2023-06-22T13:50:32;9.32;;;8.82;;
9424;SDS011;17139;52.140;11.636;2023-06-22T13:53:00;8.52;;;8.07;;
9424;SDS011;17139;52.140;11.636;2023-06-22T13:55:27;6.47;;;6.13;;
9424;SDS011;17139;52.140;11.636;2023-06-22T13:57:54;8.73;;;8.30;;
9424;SDS011;17139;52.140;11.636;2023-06-22T14:00:22;8.65;;;8.25;;
9424;SDS011;17139;52.140;11.636;2023-06-22T14:02:49;8.57;;;8.07;;
9424;SDS011;17139;52.140;11.636;2023-06-22T14:05:17;8.35;;;7.80;;
9424;SDS011;17139;52.140;11.636;2023-06-22T14:07:44;8.13;;;7.72;;
9424;SDS011;17139;52.140;11.636;2023-06-22T14:10:11;7.82;;;7.43;;
9424;SDS011;17139;52.140;11.636;2023-06-22T14:12:38;8.00;;;7.38;;
9424;SDS011;17139;52.140;11.636;2023-06-22T14:15:05;8.93;;;8.37;;
9424;SDS011;17139;52.140;11.636;2023-06-22T14:17:34;9.05;;;8.13;;
9424;SDS011;17139;52.140;11.636;2023-06-22T14:20:01;8.38;;;7.88;;
9424;SDS011;17139;52.140;11.636;2023-06-22T14:22:30;8.50;;;7.90;;
9424;SDS011;17139;52.140;11.636;2023-06-22T14:24:57;8.05;;;7.63;;
9424;SDS011;17139;52.140;11.636;2023-06-22T14:27:25;7.88;;;7.47;;
9424;SDS011;17139;52.140;11.636;2023-06-22T14:29:52;7.72;;;7.22;;
9424;SDS011;17139;52.140;11.636;2023-06-22T14:32:19;8.65;;;7.90;;
9424;SDS011;17139;52.140;11.636;2023-06-22T14:34:47;8.25;;;7.75;;
9424;SDS011;17139;52.140;11.636;2023-06-22T14:37:15;8.38;;;7.97;;
9424;SDS011;17139;52.140;11.636;2023-06-22T14:39:42;8.20;;;7.70;;
9424;SDS011;17139;52.140;11.636;2023-06-22T14:42:09;8.75;;;8.15;;
9424;SDS011;17139;52.140;11.636;2023-06-22T14:44:36;8.63;;;8.23;;
9424;SDS011;17139;52.140;11.636;2023-06-22T14:47:03;8.00;;;7.70;;
9424;SDS011;17139;52.140;11.636;2023-06-22T14:49:30;8.68;;;8.10;;